createdAt,value
2018-06-24T00:01:39.000Z,43.222
2018-06-24T00:11:39.000Z,43.252
2018-06-24T00:21:38.000Z,43.336
2018-06-24T00:31:39.000Z,43.576
2018-06-24T00:41:39.000Z,43.595
2018-06-24T00:51:39.000Z,43.68
2018-06-24T01:01:39.000Z,43.775
2018-06-24T01:11:39.000Z,43.849
2018-06-24T01:21:39.000Z,43.899
2018-06-24T01:31:39.000Z,44.017
2018-06-24T01:41:39.000Z,44.015
2018-06-24T01:51:39.000Z,44.099
2018-06-24T02:01:57.000Z,44.108
2018-06-24T02:11:57.000Z,44.138
2018-06-24T02:21:57.000Z,44.169
2018-06-24T02:31:58.000Z,44.211
2018-06-24T02:41:57.000Z,44.317
2018-06-24T02:51:57.000Z,44.347
2018-06-24T03:01:57.000Z,44.368
2018-06-24T03:11:57.000Z,44.41
2018-06-24T03:21:57.000Z,44.484
2018-06-24T03:31:57.000Z,44.472
2018-06-24T03:41:57.000Z,44.493
2018-06-24T03:51:57.000Z,44.48
2018-06-24T04:01:57.000Z,44.448
2018-06-24T04:11:57.000Z,44.48
2018-06-24T04:21:57.000Z,44.511
2018-06-24T04:31:57.000Z,44.554
2018-06-24T04:41:57.000Z,44.544
2018-06-24T04:51:57.000Z,44.511
2018-06-24T05:01:57.000Z,44.533
2018-06-24T05:11:57.000Z,44.565
2018-06-24T05:21:57.000Z,44.511
2018-06-24T05:31:57.000Z,44.564
2018-06-24T05:41:57.000Z,44.553
2018-06-24T05:51:57.000Z,44.511
2018-06-24T06:01:57.000Z,44.5
2018-06-24T06:11:57.000Z,44.405
2018-06-24T06:21:57.000Z,44.48
2018-06-24T06:31:57.000Z,44.512
2018-06-24T06:41:57.000Z,44.492
2018-06-24T06:51:57.000Z,44.417
2018-06-24T07:01:57.000Z,44.387
2018-06-24T07:11:57.000Z,44.377
2018-06-24T07:21:57.000Z,44.377
2018-06-24T07:31:57.000Z,44.356
2018-06-24T07:41:57.000Z,44.165
2018-06-24T07:51:57.000Z,44.005
2018-06-24T08:01:57.000Z,44.082
2018-06-24T08:11:57.000Z,44.029
2018-06-24T08:21:57.000Z,44.009
2018-06-24T08:31:57.000Z,44.013
2018-06-24T08:41:58.000Z,43.971
2018-06-24T08:51:58.000Z,43.95
2018-06-24T09:01:58.000Z,43.788
2018-06-24T09:12:01.000Z,44.034
2018-06-24T09:21:58.000Z,44.511
2018-06-24T09:31:58.000Z,44.71
2018-06-24T09:41:58.000Z,44.615
2018-06-24T09:51:58.000Z,44.487
2018-06-24T10:01:58.000Z,44.455
2018-06-24T10:11:58.000Z,44.679
2018-06-24T10:21:58.000Z,44.839
2018-06-24T10:41:58.000Z,44.815
2018-06-24T10:51:59.000Z,44.793
2018-06-24T11:01:58.000Z,44.719
2018-06-24T11:11:58.000Z,44.375
2018-06-24T11:21:58.000Z,44.382
2018-06-24T11:31:58.000Z,44.37
2018-06-24T11:42:00.000Z,44.42
2018-06-24T11:51:58.000Z,44.345
2018-06-24T12:01:58.000Z,44.398
2018-06-24T12:11:58.000Z,44.315
2018-06-24T12:21:58.000Z,44.43
2018-06-24T12:31:58.000Z,44.5
2018-06-24T12:41:58.000Z,44.317
2018-06-24T12:51:58.000Z,44.484
2018-06-24T13:01:58.000Z,44.549
2018-06-24T13:11:58.000Z,44.781
2018-06-24T13:21:58.000Z,44.73
2018-06-24T13:31:58.000Z,44.966
2018-06-24T13:41:58.000Z,45.615
2018-06-24T13:51:58.000Z,45.914
2018-06-24T14:01:58.000Z,46.278
2018-06-24T14:12:01.000Z,46.495
2018-06-24T14:21:58.000Z,48.318
2018-06-24T14:31:58.000Z,49.33
2018-06-24T14:41:58.000Z,49.079
2018-06-24T14:51:58.000Z,50.059
2018-06-24T15:01:59.000Z,47.193
2018-06-24T15:11:58.000Z,46.45
2018-06-24T15:21:58.000Z,46.328
2018-06-24T15:31:58.000Z,46.208
2018-06-24T15:41:58.000Z,46.057
2018-06-24T15:51:58.000Z,45.958
2018-06-24T16:01:58.000Z,45.99
2018-06-24T16:11:58.000Z,46.068
2018-06-24T16:21:58.000Z,46.24
2018-06-24T16:31:58.000Z,46.362
2018-06-24T16:41:58.000Z,46.821
2018-06-24T16:51:59.000Z,48.518
2018-06-24T17:01:58.000Z,49.033
2018-06-24T17:11:59.000Z,49.429
2018-06-24T17:21:59.000Z,49.551
2018-06-24T17:31:59.000Z,50.132
2018-06-24T17:41:59.000Z,50.474
2018-06-24T17:51:59.000Z,50.383
2018-06-24T18:02:01.000Z,50.1
2018-06-24T18:11:59.000Z,50.381
2018-06-24T18:21:59.000Z,50.356
2018-06-24T18:31:59.000Z,50.309
2018-06-24T18:41:59.000Z,50.132
2018-06-24T18:51:59.000Z,50.005
2018-06-24T19:01:59.000Z,49.963
2018-06-24T19:11:59.000Z,49.778
2018-06-24T19:21:59.000Z,49.927
2018-06-24T19:31:59.000Z,49.954
2018-06-24T19:41:59.000Z,50.842
2018-06-24T19:51:59.000Z,51.268
2018-06-24T20:01:59.000Z,51.41
2018-06-24T20:11:59.000Z,51.417
2018-06-24T20:21:59.000Z,51.304
2018-06-24T20:31:59.000Z,51.675
2018-06-24T20:42:00.000Z,51.464
2018-06-24T20:51:59.000Z,51.44
2018-06-24T21:01:59.000Z,51.338
2018-06-24T21:11:59.000Z,51.27
2018-06-24T21:21:59.000Z,51.258
2018-06-24T21:31:59.000Z,51.288
2018-06-24T21:42:01.000Z,51.329
2018-06-24T21:51:59.000Z,51.25
2018-06-24T22:01:59.000Z,51.215
2018-06-24T22:11:59.000Z,51.181
2018-06-24T22:21:59.000Z,51.189
2018-06-24T22:31:59.000Z,51.155
2018-06-24T22:41:59.000Z,51.152
2018-06-24T22:51:59.000Z,51.172
2018-06-24T23:01:59.000Z,51.256
2018-06-24T23:11:59.000Z,51.254
2018-06-24T23:21:59.000Z,51.296
2018-06-24T23:31:59.000Z,51.305
2018-06-24T23:41:59.000Z,51.249
2018-06-24T23:51:59.000Z,51.279
